»·PEaware :: AAL491 KPHX-KSAN

AAL491 :: KPHX-KSAN

FLIGHT INFORMATION

Flight Status: Arrived
Operator:
American Airlines
More flights by this operator :: More flights under this callsign
Pilot: Daniel O. (11975)
Aircraft: AIRBUS A320
(A320)
More flights by this aircraft type
Origin: KPHX Phoenix Sky Harbor Intl
United States
Destination: KSAN San Diego Intl-Lindbergh
United States
More flights between these airports :: More routes between these airports
Route: KEENS2 HRRBR DECAS MOMAR LUCKI1
File this flight plan on PilotEdge
Remarks:
Altitude:
(Current/Filed)
22,000ft
Speed:
(Current/Filed)
450kts
Departed: 10-Feb-20 03:38 PM
Arrived: 10-Feb-20 04:28 PM
Distance/Time
Traveled:
264nm/0:50
Distance/Time
To Go:
Arrived

Flight Plot

Page will automatically refresh every two minutes.

Flight plan parsing failed; only flown route is shown


Map Options




Map Legend


Flown Route
Filed Route
Departure Airport
Arrival Airport
Navaid (VOR, NDB)
Fix

Horizontal Profiles

Position Reports

Time Latitude Longitude Heading Altitude Ground
Speed
10-Feb-20 15:25 33.437233 -111.998787 269 1146ft 0kts
10-Feb-20 15:26 33.437233 -111.998787 269 1146ft 0kts
10-Feb-20 15:27 33.437233 -111.998787 269 1146ft 0kts
10-Feb-20 15:28 33.437233 -111.998787 269 1146ft 0kts
10-Feb-20 15:29 33.437233 -111.998787 269 1146ft 0kts
10-Feb-20 15:30 33.437025 -111.998338 331 1146ft 2kts
10-Feb-20 15:31 33.436709 -111.998272 0 1146ft 0kts
10-Feb-20 15:32 33.436709 -111.998272 0 1146ft 0kts
10-Feb-20 15:33 33.438473 -111.998246 0 1149ft 18kts
10-Feb-20 15:35 33.439044 -112.005051 269 1134ft 34kts
10-Feb-20 15:36 33.439020 -112.016850 270 1128ft 36kts
10-Feb-20 15:37 33.439031 -112.028656 270 1120ft 23kts
10-Feb-20 15:38 33.440863 -112.025550 89 1121ft 90kts
10-Feb-20 15:39 33.440728 -111.969644 92 3588ft 193kts
10-Feb-20 15:40 33.440498 -111.895144 92 6526ft 240kts
10-Feb-20 15:41 33.424582 -111.820910 152 9945ft 245kts
10-Feb-20 15:42 33.366743 -111.849897 220 13415ft 255kts
10-Feb-20 15:43 33.356867 -111.935896 271 16205ft 291kts
10-Feb-20 15:44 33.368256 -112.042931 276 17354ft 358kts
10-Feb-20 15:45 33.387120 -112.169616 276 18200ft 411kts
10-Feb-20 15:46 33.407691 -112.309118 276 18842ft 449kts
10-Feb-20 15:47 33.429715 -112.459755 276 19951ft 463kts
10-Feb-20 15:48 33.450012 -112.613390 269 21142ft 467kts
10-Feb-20 15:49 33.452098 -112.746260 266 21855ft 468kts
10-Feb-20 15:50 33.468044 -112.881478 278 21874ft 476kts
10-Feb-20 15:51 33.497159 -113.037405 278 21904ft 476kts
10-Feb-20 15:52 33.526015 -113.193253 279 21907ft 479kts
10-Feb-20 15:53 33.554700 -113.349289 279 21910ft 481kts
10-Feb-20 15:54 33.583564 -113.507494 279 21914ft 484kts
10-Feb-20 15:54 33.608222 -113.639820 280 21916ft 486kts
10-Feb-20 15:56 33.639096 -113.806374 279 21915ft 488kts
10-Feb-20 15:56 33.658580 -113.939938 275 21915ft 487kts
10-Feb-20 15:57 33.677075 -114.101536 275 21908ft 489kts
10-Feb-20 15:59 33.698442 -114.290622 275 21897ft 487kts
10-Feb-20 15:59 33.713479 -114.425312 275 21897ft 487kts
10-Feb-20 16:00 33.731376 -114.587432 275 21898ft 487kts
10-Feb-20 16:02 33.751667 -114.773673 275 21897ft 488kts
10-Feb-20 16:02 33.766077 -114.907529 275 21897ft 490kts
10-Feb-20 16:03 33.783466 -115.070966 276 21923ft 491kts
10-Feb-20 16:04 33.800660 -115.234657 276 21956ft 494kts
10-Feb-20 16:05 33.814917 -115.400321 266 21953ft 496kts
10-Feb-20 16:06 33.765271 -115.550163 230 21951ft 486kts
10-Feb-20 16:07 33.684213 -115.677849 229 21951ft 488kts
10-Feb-20 16:08 33.605335 -115.802406 229 21952ft 488kts
10-Feb-20 16:09 33.523233 -115.931636 229 21935ft 487kts
10-Feb-20 16:10 33.445401 -116.064668 232 21922ft 492kts
10-Feb-20 16:11 33.367729 -116.198186 233 20070ft 482kts
10-Feb-20 16:12 33.267577 -116.291381 203 17327ft 457kts
10-Feb-20 16:13 33.156454 -116.356126 203 14101ft 425kts
10-Feb-20 16:14 33.063358 -116.410416 203 13320ft 335kts
10-Feb-20 16:15 32.985241 -116.464489 219 12344ft 326kts
10-Feb-20 16:16 32.916467 -116.534174 219 10666ft 324kts
10-Feb-20 16:17 32.850387 -116.600708 219 9623ft 301kts
10-Feb-20 16:18 32.787331 -116.664168 219 8231ft 294kts
10-Feb-20 16:19 32.743101 -116.743026 241 6832ft 288kts
10-Feb-20 16:20 32.705524 -116.824193 250 5889ft 266kts
10-Feb-20 16:21 32.682544 -116.898578 252 4807ft 238kts
10-Feb-20 16:22 32.680973 -116.972023 289 3904ft 225kts
10-Feb-20 16:23 32.696959 -117.038300 288 3503ft 179kts
10-Feb-20 16:24 32.708937 -117.087702 288 2092ft 152kts
10-Feb-20 16:25 32.720172 -117.134322 287 820ft 139kts
10-Feb-20 16:26 32.730895 -117.178752 288 68ft 137kts
10-Feb-20 16:27 32.735157 -117.198124 249 24ft 17kts
10-Feb-20 16:28 32.734619 -117.201786 190 25ft 6kts
10-Feb-20 16:29 32.734085 -117.201789 178 26ft 0kts

Navigation Log

Ident Type
Flight plan parsing failed, navigation log unavailable